createdAt,value
2019-02-02T00:01:52.951Z,39.93
2019-02-02T00:04:21.845Z,41.07
2019-02-02T00:06:56.771Z,38.13
2019-02-02T00:09:25.657Z,37.80
2019-02-02T00:11:54.651Z,38.20
2019-02-02T00:14:23.656Z,37.30
2019-02-02T00:16:52.553Z,38.70
2019-02-02T00:19:21.502Z,39.23
2019-02-02T00:21:58.409Z,37.90
2019-02-02T00:24:27.304Z,36.93
2019-02-02T00:26:56.191Z,37.63
2019-02-02T00:29:25.148Z,37.67
2019-02-02T00:31:54.076Z,35.60
2019-02-02T00:34:23.086Z,39.23
2019-02-02T00:36:52.372Z,37.03
2019-02-02T00:39:21.376Z,38.20
2019-02-02T00:41:51.683Z,36.27
2019-02-02T00:44:20.501Z,37.30
2019-02-02T00:46:49.416Z,37.43
2019-02-02T00:49:24.252Z,37.63
2019-02-02T00:51:53.126Z,38.33
2019-02-02T00:54:21.994Z,38.90
2019-02-02T00:56:50.904Z,40.80
2019-02-02T00:59:19.859Z,40.07
2019-02-02T01:01:48.757Z,38.17
2019-02-02T01:04:17.669Z,39.93
2019-02-02T01:06:47.364Z,38.80
2019-02-02T01:09:20.571Z,38.77
2019-02-02T01:11:49.612Z,38.77
2019-02-02T01:14:24.176Z,38.60
2019-02-02T01:16:53.080Z,36.90
2019-02-02T01:19:22.085Z,37.57
2019-02-02T01:21:50.984Z,40.57
2019-02-02T01:24:19.930Z,40.47
2019-02-02T01:26:48.902Z,38.90
2019-02-02T01:29:18.006Z,41.33
2019-02-02T01:31:47.269Z,41.43
2019-02-02T01:34:16.218Z,40.57
2019-02-02T01:36:45.587Z,38.87
2019-02-02T01:39:14.926Z,39.10
2019-02-02T01:41:44.319Z,38.73
2019-02-02T01:44:13.265Z,39.10
2019-02-02T01:47:09.665Z,37.20
2019-02-02T01:49:38.594Z,37.37
2019-02-02T01:55:18.376Z,37.70
2019-02-02T01:57:47.329Z,38.80
2019-02-02T02:00:17.937Z,38.23
2019-02-02T02:02:46.818Z,38.70
2019-02-02T02:05:15.678Z,39.80
2019-02-02T02:07:47.444Z,38.07
2019-02-02T02:10:16.766Z,39.70
2019-02-02T02:12:45.688Z,38.77
2019-02-02T02:15:15.270Z,37.33
2019-02-02T02:17:44.906Z,37.37
2019-02-02T02:20:14.506Z,37.87
2019-02-02T02:23:04.196Z,35.03
2019-02-02T02:25:52.134Z,36.20
2019-02-02T02:28:27.785Z,37.17
2019-02-02T02:30:51.841Z,35.20
2019-02-02T02:33:21.115Z,34.40
2019-02-02T02:35:50.113Z,35.40
2019-02-02T02:38:19.164Z,34.37
2019-02-02T02:40:48.066Z,35.97
2019-02-02T02:43:16.953Z,34.20
2019-02-02T02:45:45.830Z,32.43
2019-02-02T02:48:32.302Z,33.47
2019-02-02T02:51:01.577Z,34.93
2019-02-02T02:53:30.497Z,35.80
2019-02-02T02:55:59.472Z,35.00
2019-02-02T02:58:40.416Z,34.00
2019-02-02T03:01:17.849Z,34.30
2019-02-02T03:03:46.787Z,33.13
2019-02-02T03:06:16.041Z,32.90
2019-02-02T03:08:44.962Z,32.57
2019-02-02T03:11:13.896Z,31.70
2019-02-02T03:13:43.090Z,31.57
2019-02-02T03:16:12.071Z,32.53
2019-02-02T03:18:40.983Z,31.57
2019-02-02T03:21:09.898Z,31.47
2019-02-02T03:23:57.833Z,31.33
2019-02-02T03:26:26.725Z,33.50
2019-02-02T03:28:55.724Z,33.23
2019-02-02T03:31:24.619Z,31.13
2019-02-02T03:33:53.515Z,30.30
2019-02-02T03:36:24.651Z,30.23
2019-02-02T03:38:53.564Z,28.83
2019-02-02T03:42:02.206Z,30.60
2019-02-02T03:44:31.213Z,30.93
2019-02-02T03:47:00.142Z,30.70
2019-02-02T03:49:29.526Z,29.70
2019-02-02T03:51:58.444Z,29.40
2019-02-02T03:54:27.515Z,28.70
2019-02-02T03:56:56.494Z,27.13
2019-02-02T03:59:25.433Z,26.93
2019-02-02T04:01:54.325Z,28.27
2019-02-02T04:04:23.211Z,25.77
2019-02-02T04:06:52.140Z,26.53
2019-02-02T04:09:31.360Z,25.40
2019-02-02T04:12:00.261Z,27.23
2019-02-02T04:14:29.275Z,26.23
2019-02-02T04:16:58.165Z,25.63
2019-02-02T04:19:27.051Z,27.30
2019-02-02T04:22:06.291Z,27.93
2019-02-02T04:24:35.186Z,29.60
2019-02-02T04:27:04.146Z,28.30
2019-02-02T04:29:33.096Z,29.17
2019-02-02T04:32:02.152Z,27.97
2019-02-02T04:34:31.015Z,29.07
2019-02-02T04:36:59.907Z,27.90
2019-02-02T04:39:29.160Z,30.30
2019-02-02T04:45:20.684Z,27.07
2019-02-02T04:51:12.037Z,26.50
2019-02-02T04:53:41.004Z,26.30
2019-02-02T04:56:09.963Z,27.10
2019-02-02T04:58:39.231Z,26.47
2019-02-02T05:01:08.505Z,26.00
2019-02-02T05:03:37.457Z,26.03
2019-02-02T05:06:31.497Z,25.83
2019-02-02T05:09:01.178Z,24.20
2019-02-02T05:11:30.084Z,25.43
2019-02-02T05:14:00.113Z,25.50
2019-02-02T05:16:28.975Z,25.53
2019-02-02T05:18:58.168Z,25.60
2019-02-02T05:21:27.190Z,26.37
2019-02-02T05:23:56.092Z,26.20
2019-02-02T05:26:25.033Z,25.77
2019-02-02T05:28:53.941Z,23.50
2019-02-02T05:31:22.924Z,26.60
2019-02-02T05:33:53.727Z,26.50
2019-02-02T05:36:27.041Z,25.17
2019-02-02T05:38:55.973Z,25.17
2019-02-02T05:41:25.657Z,24.47
2019-02-02T05:43:54.987Z,27.03
2019-02-02T05:46:23.868Z,27.30
2019-02-02T05:48:52.806Z,25.40
2019-02-02T05:51:21.744Z,25.97
2019-02-02T05:53:50.654Z,25.60
2019-02-02T05:56:19.725Z,25.37
2019-02-02T05:58:51.657Z,26.77
2019-02-02T06:01:21.285Z,26.87
2019-02-02T06:03:50.183Z,24.50
2019-02-02T06:06:19.997Z,23.20
2019-02-02T06:08:48.915Z,23.20
2019-02-02T06:11:18.204Z,21.83
2019-02-02T06:13:47.524Z,23.17
2019-02-02T06:16:16.787Z,24.77
2019-02-02T06:18:45.739Z,25.00
2019-02-02T06:21:14.624Z,24.07
2019-02-02T06:23:43.540Z,24.37
2019-02-02T06:26:12.444Z,23.30
2019-02-02T06:28:41.772Z,24.07
2019-02-02T06:31:10.751Z,21.73
2019-02-02T06:33:39.647Z,24.13
2019-02-02T06:36:38.064Z,22.53
2019-02-02T06:39:10.600Z,23.77
2019-02-02T06:41:39.555Z,22.03
2019-02-02T06:44:08.801Z,21.50
2019-02-02T06:46:43.653Z,25.90
2019-02-02T06:49:27.698Z,25.20
2019-02-02T06:51:57.047Z,23.90
2019-02-02T06:54:25.979Z,24.33
2019-02-02T06:56:54.895Z,22.80
2019-02-02T06:59:23.842Z,23.87
2019-02-02T07:02:04.738Z,24.03
2019-02-02T07:04:33.694Z,25.33
2019-02-02T07:07:03.081Z,23.70
2019-02-02T07:09:32.317Z,22.87
2019-02-02T07:12:01.361Z,25.63
2019-02-02T07:14:30.744Z,22.87
2019-02-02T07:17:11.980Z,22.60
2019-02-02T07:19:40.897Z,22.10
2019-02-02T07:22:09.823Z,23.67
2019-02-02T07:24:49.949Z,24.43
2019-02-02T07:27:17.468Z,23.07
2019-02-02T07:29:46.778Z,25.70
2019-02-02T07:32:15.690Z,28.97
2019-02-02T07:34:44.647Z,27.60
2019-02-02T07:37:13.633Z,26.67
2019-02-02T07:39:42.849Z,28.37
2019-02-02T07:42:11.743Z,26.17
2019-02-02T07:44:41.045Z,26.93
2019-02-02T07:47:09.951Z,27.47
2019-02-02T07:49:38.842Z,25.03
2019-02-02T07:52:07.736Z,25.03
2019-02-02T07:54:37.009Z,25.60
2019-02-02T07:57:05.949Z,24.73
2019-02-02T07:59:35.197Z,24.83
2019-02-02T08:02:04.427Z,25.83
2019-02-02T08:04:33.730Z,28.10
2019-02-02T08:07:02.999Z,29.80
2019-02-02T08:09:32.722Z,26.10
2019-02-02T08:12:01.948Z,26.73
2019-02-02T08:14:30.927Z,28.40
2019-02-02T08:17:25.495Z,28.07
2019-02-02T08:19:54.792Z,27.40
2019-02-02T08:22:38.733Z,27.90
2019-02-02T08:25:08.152Z,26.53
2019-02-02T08:27:38.253Z,23.90
2019-02-02T08:30:20.881Z,21.90
2019-02-02T08:32:50.103Z,22.83
2019-02-02T08:35:18.986Z,20.53
2019-02-02T08:38:05.516Z,17.67
2019-02-02T08:40:34.794Z,19.70
2019-02-02T08:43:04.068Z,21.40
2019-02-02T08:48:45.994Z,24.63
2019-02-02T08:51:14.949Z,28.20
2019-02-02T08:53:44.607Z,25.93
2019-02-02T08:56:13.473Z,26.67
2019-02-02T08:58:42.380Z,27.70
2019-02-02T09:01:11.661Z,27.00
2019-02-02T09:03:41.011Z,28.17
2019-02-02T09:06:09.896Z,27.53
2019-02-02T09:08:50.949Z,30.57
2019-02-02T09:11:19.885Z,27.10
2019-02-02T09:13:48.868Z,27.90
2019-02-02T09:16:17.793Z,24.50
2019-02-02T09:18:46.766Z,27.43
2019-02-02T09:21:15.724Z,24.90
2019-02-02T09:23:49.185Z,27.07
2019-02-02T09:26:18.134Z,26.30
2019-02-02T09:28:47.099Z,24.90
2019-02-02T09:31:16.286Z,24.80
2019-02-02T09:33:51.612Z,25.63
2019-02-02T09:36:20.513Z,25.50
2019-02-02T09:38:49.411Z,24.43
2019-02-02T09:41:18.680Z,25.43
2019-02-02T09:43:47.604Z,27.90
2019-02-02T09:46:16.481Z,27.07
2019-02-02T09:48:45.485Z,30.87
2019-02-02T09:51:16.343Z,29.93
2019-02-02T09:53:45.616Z,31.30
2019-02-02T09:56:14.471Z,31.13
2019-02-02T09:58:43.368Z,32.10
2019-02-02T10:01:12.809Z,30.80
2019-02-02T10:03:42.165Z,30.17
2019-02-02T10:06:11.043Z,29.90
2019-02-02T10:08:40.156Z,30.40
2019-02-02T10:11:09.103Z,26.67
2019-02-02T10:13:37.943Z,28.60
2019-02-02T10:16:07.146Z,27.07
2019-02-02T10:18:36.067Z,26.43
2019-02-02T10:21:05.088Z,23.87
2019-02-02T10:23:34.441Z,23.27
2019-02-02T10:26:04.154Z,23.80
2019-02-02T10:28:33.442Z,24.23
2019-02-02T10:31:02.682Z,23.10
2019-02-02T10:33:31.951Z,23.13
2019-02-02T10:36:00.821Z,22.57
2019-02-02T10:38:29.727Z,22.00
2019-02-02T10:41:17.164Z,20.10
2019-02-02T10:43:46.863Z,20.43
2019-02-02T10:46:15.734Z,19.23
2019-02-02T10:48:44.983Z,18.77
2019-02-02T10:51:13.875Z,19.30
2019-02-02T10:53:42.765Z,18.03
2019-02-02T10:56:11.665Z,19.73
2019-02-02T10:58:40.543Z,21.40
2019-02-02T11:01:09.804Z,26.93
2019-02-02T11:03:51.189Z,26.20
2019-02-02T11:06:20.130Z,26.17
2019-02-02T11:08:48.965Z,22.97
2019-02-02T11:11:17.898Z,20.70
2019-02-02T11:13:47.343Z,19.70
2019-02-02T11:16:16.824Z,21.97
2019-02-02T11:18:45.804Z,22.53
2019-02-02T11:21:14.659Z,22.17
2019-02-02T11:23:44.075Z,19.17
2019-02-02T11:26:13.051Z,20.43
2019-02-02T11:28:42.004Z,19.97
2019-02-02T11:31:11.584Z,20.00
2019-02-02T11:33:48.555Z,19.33
2019-02-02T11:36:17.522Z,18.23
2019-02-02T11:38:46.728Z,17.47
2019-02-02T11:41:15.919Z,19.27
2019-02-02T11:43:45.632Z,21.17
2019-02-02T11:46:14.495Z,19.00
2019-02-02T11:48:43.714Z,20.57
2019-02-02T11:51:12.606Z,20.80
2019-02-02T11:53:41.468Z,20.53
2019-02-02T11:56:16.254Z,20.10
2019-02-02T11:58:45.530Z,20.50
2019-02-02T12:01:14.413Z,19.00
2019-02-02T12:03:44.096Z,18.33
2019-02-02T12:06:12.984Z,17.47
2019-02-02T12:08:41.839Z,15.53
2019-02-02T12:11:10.711Z,15.53
2019-02-02T12:13:40.067Z,16.47
2019-02-02T12:16:08.951Z,18.10
2019-02-02T12:18:38.224Z,17.00
2019-02-02T12:21:07.092Z,17.30
2019-02-02T12:23:36.051Z,16.07
2019-02-02T12:26:20.623Z,16.03
2019-02-02T12:28:50.464Z,17.97
2019-02-02T12:31:19.741Z,16.67
2019-02-02T12:33:48.700Z,15.13
2019-02-02T12:36:17.587Z,15.90
2019-02-02T12:38:46.821Z,15.00
2019-02-02T12:41:15.810Z,15.23
2019-02-02T12:43:45.227Z,14.33
2019-02-02T12:46:14.199Z,13.47
2019-02-02T12:48:43.086Z,14.80
2019-02-02T12:51:13.012Z,13.77
2019-02-02T12:53:41.974Z,14.13
2019-02-02T12:56:10.856Z,12.13
2019-02-02T12:58:40.132Z,12.33
2019-02-02T13:01:09.085Z,14.37
2019-02-02T13:03:37.930Z,13.73
2019-02-02T13:06:06.835Z,13.93
2019-02-02T13:08:35.797Z,10.77
2019-02-02T13:11:04.702Z,10.87
2019-02-02T13:13:34.002Z,13.13
2019-02-02T13:16:02.841Z,13.23
2019-02-02T13:18:31.701Z,13.27
2019-02-02T13:21:00.627Z,14.83
2019-02-02T13:23:29.492Z,16.90
2019-02-02T13:26:05.541Z,15.63
2019-02-02T13:28:28.952Z,13.80
2019-02-02T13:30:58.252Z,15.90
2019-02-02T13:33:27.569Z,17.00
2019-02-02T13:35:56.455Z,19.73
2019-02-02T13:38:25.750Z,18.87
2019-02-02T13:40:57.464Z,18.77
2019-02-02T13:43:44.615Z,18.17
2019-02-02T13:46:13.497Z,21.67
2019-02-02T13:48:42.795Z,20.40
2019-02-02T13:51:34.829Z,20.80
2019-02-02T13:54:04.371Z,21.00
2019-02-02T13:56:59.309Z,21.40
2019-02-02T13:59:28.193Z,22.87
2019-02-02T14:01:58.164Z,20.90
2019-02-02T14:04:27.467Z,19.53
2019-02-02T14:06:56.391Z,20.10
2019-02-02T14:09:25.732Z,20.10
2019-02-02T14:15:17.371Z,22.60
2019-02-02T14:17:56.307Z,26.57
2019-02-02T14:20:25.186Z,25.77
2019-02-02T14:22:54.078Z,23.07
2019-02-02T14:25:22.959Z,22.23
2019-02-02T14:27:52.155Z,20.40
2019-02-02T14:30:21.798Z,18.10
2019-02-02T14:32:50.735Z,15.90
2019-02-02T14:35:20.141Z,16.90
2019-02-02T14:37:49.083Z,17.30
2019-02-02T14:40:18.780Z,17.20
2019-02-02T14:43:19.882Z,16.57
2019-02-02T14:45:48.772Z,16.37
2019-02-02T14:48:17.659Z,16.63
2019-02-02T14:50:46.536Z,17.80
2019-02-02T14:53:16.674Z,16.37
2019-02-02T14:55:46.125Z,17.00
2019-02-02T14:58:17.396Z,15.83
2019-02-02T15:00:46.286Z,17.13
2019-02-02T15:03:25.603Z,17.00
2019-02-02T15:05:46.258Z,17.33
2019-02-02T15:08:15.147Z,17.27
2019-02-02T15:10:44.489Z,15.53
2019-02-02T15:13:13.407Z,16.87
2019-02-02T15:15:51.695Z,16.70
2019-02-02T15:18:20.549Z,16.50
2019-02-02T15:20:49.425Z,16.83
2019-02-02T15:23:18.756Z,15.10
2019-02-02T15:25:47.679Z,16.67
2019-02-02T15:28:16.604Z,15.83
2019-02-02T15:30:45.972Z,16.07
2019-02-02T15:33:14.900Z,16.60
2019-02-02T15:35:43.771Z,17.33
2019-02-02T15:38:12.642Z,18.70
2019-02-02T15:40:42.321Z,17.30
2019-02-02T15:43:11.253Z,16.10
2019-02-02T15:45:43.494Z,16.03
2019-02-02T15:48:12.702Z,15.90
2019-02-02T15:50:42.010Z,16.97
2019-02-02T15:53:11.287Z,17.10
2019-02-02T15:55:40.189Z,17.87
2019-02-02T15:58:09.104Z,19.23
2019-02-02T16:00:38.544Z,19.20
2019-02-02T16:03:07.465Z,19.00
2019-02-02T16:05:36.865Z,17.73
2019-02-02T16:08:13.546Z,20.07
2019-02-02T16:10:46.426Z,18.70
2019-02-02T16:13:15.367Z,18.33
2019-02-02T16:15:44.419Z,18.00
2019-02-02T16:18:13.730Z,17.87
2019-02-02T16:20:48.995Z,19.50
2019-02-02T16:23:17.868Z,20.03
2019-02-02T16:25:46.767Z,19.90
2019-02-02T16:28:15.706Z,20.50
2019-02-02T16:30:44.682Z,21.00
2019-02-02T16:33:13.946Z,20.10
2019-02-02T16:35:43.196Z,20.17
2019-02-02T16:38:24.590Z,21.00
2019-02-02T16:40:53.595Z,22.77
2019-02-02T16:43:22.497Z,21.63
2019-02-02T16:46:02.695Z,22.13
2019-02-02T16:48:31.596Z,22.37
2019-02-02T16:51:00.522Z,22.10
2019-02-02T16:53:29.458Z,20.40
2019-02-02T16:55:58.518Z,22.00
2019-02-02T16:58:27.459Z,23.03
2019-02-02T17:01:09.935Z,22.80
2019-02-02T17:03:38.881Z,21.57
2019-02-02T17:06:09.938Z,22.60
2019-02-02T17:08:39.047Z,22.77
2019-02-02T17:11:26.500Z,23.50
2019-02-02T17:13:55.440Z,24.30
2019-02-02T17:16:33.147Z,23.90
2019-02-02T17:19:02.441Z,24.73
2019-02-02T17:21:46.287Z,24.07
2019-02-02T17:24:15.183Z,23.70
2019-02-02T17:26:44.468Z,24.17
2019-02-02T17:29:13.363Z,24.57
2019-02-02T17:31:42.291Z,23.07
2019-02-02T17:34:11.556Z,24.17
2019-02-02T17:36:40.510Z,23.80
2019-02-02T17:39:09.843Z,25.60
2019-02-02T17:41:39.143Z,25.90
2019-02-02T17:44:08.388Z,24.93
2019-02-02T17:46:37.320Z,25.90
2019-02-02T17:49:06.203Z,26.40
2019-02-02T17:51:50.548Z,26.47
2019-02-02T17:54:19.447Z,28.47
2019-02-02T17:56:48.369Z,28.30
2019-02-02T17:59:50.538Z,30.23
2019-02-02T18:02:19.438Z,30.23
2019-02-02T18:05:00.807Z,29.30
2019-02-02T18:07:29.700Z,30.27
2019-02-02T18:09:58.902Z,30.67
2019-02-02T18:12:27.786Z,28.13
2019-02-02T18:14:56.658Z,28.80
2019-02-02T18:17:25.575Z,28.20
2019-02-02T18:19:54.564Z,28.40
2019-02-02T18:22:23.452Z,29.77
2019-02-02T18:24:56.461Z,27.80
2019-02-02T18:27:30.706Z,32.63
2019-02-02T18:29:59.615Z,30.80
2019-02-02T18:32:28.472Z,30.20
2019-02-02T18:34:57.728Z,30.70
2019-02-02T18:37:26.964Z,30.97
2019-02-02T18:39:56.242Z,28.00
2019-02-02T18:42:25.152Z,31.80
2019-02-02T18:44:54.132Z,36.07
2019-02-02T18:47:23.371Z,31.77
2019-02-02T18:49:52.215Z,30.63
2019-02-02T18:52:21.188Z,29.57
2019-02-02T18:54:50.085Z,28.40
2019-02-02T18:57:19.111Z,31.37
2019-02-02T18:59:47.998Z,30.70
2019-02-02T19:02:17.959Z,31.07
2019-02-02T19:04:46.875Z,31.73
2019-02-02T19:07:25.782Z,32.00
2019-02-02T19:09:55.133Z,31.77
2019-02-02T19:12:25.010Z,31.30
2019-02-02T19:15:00.046Z,32.50
2019-02-02T19:17:28.932Z,32.90
2019-02-02T19:19:58.557Z,31.13
2019-02-02T19:22:27.438Z,32.30
2019-02-02T19:24:56.341Z,31.10
2019-02-02T19:27:32.086Z,29.83
2019-02-02T19:30:01.005Z,33.43
2019-02-02T19:32:30.293Z,32.80
2019-02-02T19:35:01.305Z,31.57
2019-02-02T19:37:30.501Z,29.90
2019-02-02T19:43:24.125Z,30.27
2019-02-02T19:45:55.235Z,29.00
2019-02-02T19:48:24.139Z,27.07
2019-02-02T19:51:19.049Z,29.67
2019-02-02T19:53:47.934Z,29.10
2019-02-02T19:56:44.631Z,29.90
2019-02-02T19:59:13.703Z,30.53
2019-02-02T20:01:42.957Z,30.50
2019-02-02T20:04:12.190Z,37.50
2019-02-02T20:06:41.079Z,36.97
2019-02-02T20:09:10.022Z,33.97
2019-02-02T20:11:40.996Z,38.90
2019-02-02T20:14:09.846Z,51.10
2019-02-02T20:16:38.810Z,48.40
2019-02-02T20:19:08.789Z,41.83
2019-02-02T20:21:37.663Z,41.17
2019-02-02T20:24:07.275Z,38.17
2019-02-02T20:26:54.727Z,33.67
2019-02-02T20:29:23.680Z,35.13
2019-02-02T20:31:52.904Z,37.10
2019-02-02T20:34:21.931Z,34.17
2019-02-02T20:36:50.912Z,32.23
2019-02-02T20:39:25.651Z,33.90
2019-02-02T20:42:06.799Z,34.70
2019-02-02T20:47:46.619Z,31.07
2019-02-02T20:50:16.640Z,33.13
2019-02-02T20:52:47.531Z,33.20
2019-02-02T20:55:17.195Z,34.10
2019-02-02T20:57:47.134Z,33.50
2019-02-02T21:00:17.112Z,34.40
2019-02-02T21:02:48.208Z,34.60
2019-02-02T21:05:17.130Z,34.20
2019-02-02T21:07:46.060Z,32.47
2019-02-02T21:10:16.115Z,32.23
2019-02-02T21:12:45.114Z,33.07
2019-02-02T21:15:14.149Z,31.43
2019-02-02T21:17:43.148Z,32.00
2019-02-02T21:20:13.333Z,32.10
2019-02-02T21:22:42.591Z,31.23
2019-02-02T21:25:11.530Z,29.43
2019-02-02T21:27:46.180Z,31.00
2019-02-02T21:30:22.296Z,33.27
2019-02-02T21:32:51.586Z,32.87
2019-02-02T21:35:20.847Z,34.33
2019-02-02T21:37:49.977Z,34.93
2019-02-02T21:40:20.123Z,34.73
2019-02-02T21:42:52.031Z,34.90
2019-02-02T21:45:20.899Z,34.40
2019-02-02T21:47:53.157Z,35.63
2019-02-02T21:50:22.392Z,38.20
2019-02-02T21:52:51.596Z,36.20
2019-02-02T21:55:57.357Z,36.03
2019-02-02T21:58:26.268Z,35.00
2019-02-02T22:00:55.552Z,36.57
2019-02-02T22:03:24.452Z,35.93
2019-02-02T22:05:53.366Z,35.67
2019-02-02T22:08:22.586Z,36.07
2019-02-02T22:10:52.260Z,34.97
2019-02-02T22:13:21.099Z,35.50
2019-02-02T22:15:50.011Z,36.97
2019-02-02T22:18:21.716Z,36.93
2019-02-02T22:20:49.577Z,37.07
2019-02-02T22:23:18.487Z,36.60
2019-02-02T22:25:47.393Z,37.90
2019-02-02T22:28:16.313Z,37.13
2019-02-02T22:30:45.510Z,38.00
2019-02-02T22:33:14.704Z,36.47
2019-02-02T22:35:43.714Z,35.50
2019-02-02T22:38:31.130Z,37.17
2019-02-02T22:40:59.995Z,37.63
2019-02-02T22:43:28.985Z,36.10
2019-02-02T22:45:58.851Z,37.33
2019-02-02T22:48:39.775Z,36.60
2019-02-02T22:51:08.676Z,34.53
2019-02-02T22:53:38.397Z,36.30
2019-02-02T22:56:07.345Z,35.87
2019-02-02T22:58:49.715Z,38.37
2019-02-02T23:01:27.467Z,38.67
2019-02-02T23:04:21.675Z,38.10
2019-02-02T23:07:02.552Z,38.53
2019-02-02T23:10:06.363Z,38.07
2019-02-02T23:12:55.346Z,39.80
2019-02-02T23:15:52.975Z,37.83
2019-02-02T23:18:22.524Z,37.20
2019-02-02T23:20:51.586Z,37.20
2019-02-02T23:23:20.386Z,38.67
2019-02-02T23:25:49.311Z,37.40
2019-02-02T23:28:18.248Z,37.90
2019-02-02T23:30:47.172Z,38.80
2019-02-02T23:40:13.504Z,38.07
2019-02-02T23:42:42.537Z,35.83
2019-02-02T23:45:11.824Z,39.97
2019-02-02T23:47:40.755Z,37.77
2019-02-02T23:50:09.677Z,36.97
2019-02-02T23:52:38.608Z,38.13
2019-02-02T23:55:07.526Z,38.30
2019-02-02T23:57:36.637Z,40.00
